الصفحة الرئيسية
METAR-TAF:

METAR-TAF

مطار :

مطار ملبورن الدولي

ملبورن, أستراليا

دائرة عرض: 37-40-24S, خط طول: 144-50-36E, ارتفاع: 132 متر

مراقبة الطقس الحالي

تاريخ ووقت الإصدار 31 دقيقة قبل الساعة 15:30UTC
ريح 6 عقدة من الغرب
درجة الحرارة 10°درجة مئوية
الرطوبة 93%
ضغط 1026 hPa
الرؤية 10 كم أو أكثر
غيوم قليلة على ارتفاع 1000 قدم

METAR: YMML 221530Z 26006KT 9999 FEW010 10/09 Q1026 NOSIG

زمن: 02:01 (16:01 UTC)

توقعات

تاريخ ووقت الإصدار 4ساعات و 47 دقيقة قبل الساعة 11:14UTC
التوقعات صالحة من22 الساعة 12 UTC إلى 23 الساعة 18 UTC
ريح 8 عقدة من الغرب/الجنوب الغربي
الرؤية 10 كم أو أكثر
غيوم قليلة على ارتفاع 1500 قدم
غيوم مفككة على ارتفاع 3000 قدم
زخات من الأمطار الخفيفة
من 22 الساعة 2300 UTC
ريح 12 عقدة من الغرب/الجنوب الغربي
الرؤية 10 كم أو أكثر
غيوم مفككة على ارتفاع 3500 قدم
زخات من الأمطار الخفيفة
من 23 الساعة 1000 UTC
ريح 10 عقدة من الغرب/الجنوب الغربي
الرؤية 10 كم أو أكثر
غيوم مفككة على ارتفاع 3500 قدم

TAF: YMML 221114Z 2212/2318 25008KT 9999 -SHRA FEW015 BKN030 FM222300 25012KT 9999 -SHRA BKN035 FM231000 25010KT 9999 BKN035

أرصاد الطقس والتوقعات من أكثر من 4000 مطار (تقارير الطقس للمطار METAR والتنبؤ بالطقس بالمطارTAF).

المحطات المتاحة هي النقط الصفراء والحمراء على الخريطة.

حرك المؤشر فوق النقطة لمعرفة اسم المحطة.

ثم انقر لمعرفة أرصاد وتوقعات الطقس.

لتغيير الخارطة: اضغط على الأزرار الخضراء مع رمز الصليب الأسود للتكبير. على الزر الأخضر مع شرطة للتصغير، أو على الأسهم الخضراء للخرائط المجاورة.


METAR-TAF: